Time;durP1;ratioP1;P1;durP2;ratioP2;P2;SDS_P1;SDS_P2;PMS_P1;PMS_P2;Temp;Humidity;BMP_temperature;BMP_pressure;BME280_temperature;BME280_humidity;BME280_pressure;Samples;Min_cycle;Max_cycle;Signal;HPM_P1;HPM_P2
2022/03/05 00:01:03;;;;;;;20.95;11.48;;;;;;;;;;5060195;28;20042;-70
2022/03/05 00:03:48;;;;;;;24.15;12.95;;;;;;;;;;5054414;28;20032;-65
2022/03/05 00:06:33;;;;;;;20.30;12.38;;;;;;;;;;5060466;28;20052;-63
2022/03/05 00:09:18;;;;;;;24.13;12.68;;;;;;;;;;5071745;28;20028;-70
2022/03/05 00:12:04;;;;;;;22.52;12.25;;;;;;;;;;5049064;28;20067;-70
2022/03/05 00:14:49;;;;;;;21.38;11.43;;;;;;;;;;5070546;28;20060;-70
2022/03/05 00:17:34;;;;;;;22.92;11.32;;;;;;;;;;5063614;28;20375;-70
2022/03/05 00:20:19;;;;;;;18.45;10.60;;;;;;;;;;5060201;28;20029;-69
2022/03/05 00:23:05;;;;;;;19.45;11.90;;;;;;;;;;5031827;28;20070;-61
2022/03/05 00:25:50;;;;;;;20.00;11.13;;;;;;;;;;5075100;28;20032;-63
2022/03/05 00:28:35;;;;;;;28.08;12.35;;;;;;;;;;5062323;28;20069;-67
2022/03/05 00:31:21;;;;;;;20.50;11.30;;;;;;;;;;5059880;28;20446;-64
2022/03/05 00:34:07;;;;;;;22.75;12.20;;;;;;;;;;5063930;28;20033;-67
2022/03/05 00:36:52;;;;;;;20.38;11.65;;;;;;;;;;5060503;28;20383;-64
2022/03/05 00:39:38;;;;;;;18.08;10.90;;;;;;;;;;5069717;28;20211;-66
2022/03/05 00:42:24;;;;;;;18.75;11.07;;;;;;;;;;5057596;28;20514;-63
2022/03/05 00:45:09;;;;;;;19.98;11.02;;;;;;;;;;5058547;28;21278;-74
2022/03/05 00:47:55;;;;;;;21.63;11.75;;;;;;;;;;5062222;28;20024;-73
2022/03/05 00:50:40;;;;;;;20.17;11.15;;;;;;;;;;5059127;28;20043;-71
2022/03/05 00:53:25;;;;;;;21.25;11.18;;;;;;;;;;5052715;28;20037;-72
2022/03/05 00:56:11;;;;;;;21.77;12.00;;;;;;;;;;5069819;28;20498;-71
2022/03/05 00:58:56;;;;;;;20.30;11.50;;;;;;;;;;5027176;28;20029;-67
2022/03/05 01:01:41;;;;;;;21.23;11.30;;;;;;;;;;5052593;28;20060;-61
2022/03/05 01:04:27;;;;;;;22.35;11.38;;;;;;;;;;5072390;28;20032;-61
2022/03/05 01:07:12;;;;;;;19.70;11.23;;;;;;;;;;5049227;28;20035;-63
2022/03/05 01:09:57;;;;;;;22.38;12.57;;;;;;;;;;5053685;28;20051;-62
2022/03/05 01:12:42;;;;;;;19.08;11.15;;;;;;;;;;5072051;28;20089;-61
2022/03/05 01:15:28;;;;;;;19.58;11.40;;;;;;;;;;5037043;28;20040;-61
2022/03/05 01:18:13;;;;;;;20.27;11.48;;;;;;;;;;5052383;28;20040;-65
2022/03/05 01:20:58;;;;;;;19.85;11.15;;;;;;;;;;5072898;28;20328;-61
2022/03/05 01:23:43;;;;;;;22.85;12.68;;;;;;;;;;5071531;28;20032;-62
2022/03/05 01:26:29;;;;;;;23.45;11.10;;;;;;;;;;5063478;28;20044;-62
2022/03/05 01:29:14;;;;;;;18.40;10.63;;;;;;;;;;5064086;28;20085;-61
2022/03/05 01:32:00;;;;;;;20.52;11.05;;;;;;;;;;5052569;28;20459;-63
2022/03/05 01:34:45;;;;;;;19.65;10.90;;;;;;;;;;5053990;28;20055;-59
2022/03/05 01:37:30;;;;;;;17.75;10.75;;;;;;;;;;5058987;28;20304;-63
2022/03/05 01:40:16;;;;;;;21.60;11.50;;;;;;;;;;5068279;28;20124;-69
2022/03/05 01:43:01;;;;;;;19.25;10.30;;;;;;;;;;5046028;28;20028;-70
2022/03/05 01:45:46;;;;;;;17.42;9.93;;;;;;;;;;5047962;28;20025;-67
2022/03/05 01:48:31;;;;;;;20.17;11.68;;;;;;;;;;5065988;28;20040;-68
2022/03/05 01:51:17;;;;;;;21.75;12.30;;;;;;;;;;5059862;28;20395;-68
2022/03/05 01:54:03;;;;;;;23.23;10.98;;;;;;;;;;5057070;28;20033;-69
2022/03/05 01:56:48;;;;;;;21.08;11.50;;;;;;;;;;5068371;28;20028;-60
2022/03/05 01:59:33;;;;;;;19.13;11.13;;;;;;;;;;5051340;28;20502;-65
2022/03/05 02:02:19;;;;;;;20.90;9.80;;;;;;;;;;5067143;28;20462;-64
2022/03/05 02:05:05;;;;;;;20.13;11.05;;;;;;;;;;5037450;28;20078;-65
2022/03/05 02:07:50;;;;;;;18.42;10.85;;;;;;;;;;5062587;28;20024;-65
2022/03/05 02:10:35;;;;;;;15.88;9.13;;;;;;;;;;5053279;28;20147;-67
2022/03/05 02:13:21;;;;;;;17.48;10.02;;;;;;;;;;5055321;28;20032;-68
2022/03/05 02:16:06;;;;;;;17.45;10.15;;;;;;;;;;5089911;28;20036;-67
2022/03/05 02:18:55;;;;;;;16.80;9.70;;;;;;;;;;5059808;28;20051;-67
2022/03/05 02:21:40;;;;;;;19.33;10.40;;;;;;;;;;5052363;28;20107;-67
2022/03/05 02:24:31;;;;;;;17.60;11.13;;;;;;;;;;5066474;28;20032;-69
2022/03/05 02:27:17;;;;;;;17.48;10.65;;;;;;;;;;5053714;28;20044;-67
2022/03/05 02:30:02;;;;;;;16.88;10.20;;;;;;;;;;5051009;28;20036;-68
2022/03/05 02:32:47;;;;;;;19.33;10.10;;;;;;;;;;5066138;28;20028;-60
2022/03/05 02:35:33;;;;;;;18.05;9.38;;;;;;;;;;5065085;28;20494;-63
2022/03/05 02:38:19;;;;;;;18.35;10.18;;;;;;;;;;5053251;28;20025;-62
2022/03/05 02:41:04;;;;;;;18.58;10.68;;;;;;;;;;5037843;28;20491;-66
2022/03/05 02:43:49;;;;;;;20.38;10.23;;;;;;;;;;5060681;28;20032;-64
2022/03/05 02:46:35;;;;;;;18.65;9.88;;;;;;;;;;5066365;28;20029;-64
2022/03/05 02:49:20;;;;;;;20.42;10.63;;;;;;;;;;5061225;28;20069;-63
2022/03/05 02:52:05;;;;;;;16.88;9.35;;;;;;;;;;5049408;28;20340;-66
2022/03/05 02:54:51;;;;;;;17.20;9.52;;;;;;;;;;5064229;28;20064;-69
2022/03/05 02:57:36;;;;;;;18.85;10.20;;;;;;;;;;5032374;28;20493;-68
2022/03/05 03:00:21;;;;;;;16.85;9.80;;;;;;;;;;5055999;28;20060;-69
2022/03/05 03:03:07;;;;;;;16.02;9.50;;;;;;;;;;5041048;28;20063;-70
2022/03/05 03:05:52;;;;;;;19.73;9.98;;;;;;;;;;5051630;28;20043;-72
2022/03/05 03:08:37;;;;;;;18.58;9.77;;;;;;;;;;5058627;28;20032;-72
2022/03/05 03:11:22;;;;;;;18.30;9.18;;;;;;;;;;5042764;28;20036;-67
2022/03/05 03:14:08;;;;;;;16.83;9.43;;;;;;;;;;5066723;28;20044;-65
2022/03/05 03:16:53;;;;;;;19.08;10.00;;;;;;;;;;5054726;28;20048;-64
2022/03/05 03:19:38;;;;;;;18.33;10.38;;;;;;;;;;5065201;28;20024;-66
2022/03/05 03:22:23;;;;;;;17.00;10.27;;;;;;;;;;5058480;28;20025;-66
2022/03/05 03:25:10;;;;;;;17.52;8.82;;;;;;;;;;5071489;28;20056;-67
2022/03/05 03:27:55;;;;;;;17.23;10.35;;;;;;;;;;5046619;28;20559;-66
2022/03/05 03:30:40;;;;;;;16.02;9.35;;;;;;;;;;5050777;28;20033;-66
2022/03/05 03:33:26;;;;;;;19.70;10.52;;;;;;;;;;5053439;28;20550;-69
2022/03/05 03:36:11;;;;;;;19.67;10.82;;;;;;;;;;5067129;28;20479;-68
2022/03/05 03:38:56;;;;;;;16.23;9.63;;;;;;;;;;5060661;28;20118;-68
2022/03/05 03:41:41;;;;;;;18.70;11.20;;;;;;;;;;5071469;28;20024;-66
2022/03/05 03:44:27;;;;;;;16.58;9.88;;;;;;;;;;5049103;28;20185;-71
2022/03/05 03:47:12;;;;;;;18.17;9.88;;;;;;;;;;5059438;28;20040;-62
2022/03/05 03:49:57;;;;;;;16.58;8.93;;;;;;;;;;5056122;28;20124;-66
2022/03/05 03:52:43;;;;;;;16.83;8.63;;;;;;;;;;5062853;28;20032;-67
2022/03/05 03:55:28;;;;;;;18.02;10.57;;;;;;;;;;5034711;28;20052;-66
2022/03/05 03:58:13;;;;;;;16.05;9.32;;;;;;;;;;5059722;28;20056;-68
2022/03/05 04:00:58;;;;;;;17.52;8.85;;;;;;;;;;5047119;28;20126;-66
2022/03/05 04:03:44;;;;;;;17.17;9.20;;;;;;;;;;5042354;28;20279;-67
2022/03/05 04:08:41;;;;;;;17.95;9.18;;;;;;;;;;5055425;28;20364;-60
2022/03/05 04:09:34;;;;;;;17.38;8.70;;;;;;;;;;5063821;28;20035;-61
2022/03/05 04:12:20;;;;;;;15.13;8.30;;;;;;;;;;5056656;28;20179;-61
2022/03/05 04:15:05;;;;;;;15.82;9.50;;;;;;;;;;5053902;28;20062;-61
2022/03/05 04:17:50;;;;;;;16.13;8.32;;;;;;;;;;5055998;28;20024;-60
2022/03/05 04:20:36;;;;;;;14.80;8.10;;;;;;;;;;5061088;28;20027;-60
2022/03/05 04:23:21;;;;;;;21.67;10.40;;;;;;;;;;5068036;28;20347;-62
2022/03/05 04:26:06;;;;;;;18.48;8.75;;;;;;;;;;5056489;28;20033;-64
2022/03/05 04:28:52;;;;;;;18.92;9.65;;;;;;;;;;5053984;28;20101;-61
2022/03/05 04:31:37;;;;;;;15.93;9.45;;;;;;;;;;5072019;28;20111;-61
2022/03/05 04:34:22;;;;;;;17.92;9.63;;;;;;;;;;5073080;28;20519;-61
2022/03/05 04:37:07;;;;;;;15.07;8.70;;;;;;;;;;5050398;28;20095;-61
2022/03/05 04:39:52;;;;;;;16.65;9.13;;;;;;;;;;5052769;28;20467;-66
2022/03/05 04:42:38;;;;;;;15.48;9.20;;;;;;;;;;5056509;28;20038;-65
2022/03/05 04:45:23;;;;;;;16.58;8.77;;;;;;;;;;5062055;28;20489;-62
2022/03/05 04:48:08;;;;;;;20.98;10.27;;;;;;;;;;5057756;28;20347;-62
2022/03/05 04:50:54;;;;;;;17.15;8.88;;;;;;;;;;5039524;28;20039;-65
2022/03/05 04:53:39;;;;;;;18.80;9.45;;;;;;;;;;5072982;28;20028;-66
2022/03/05 04:56:24;;;;;;;19.85;10.60;;;;;;;;;;5067082;28;20017;-64
2022/03/05 04:59:09;;;;;;;16.52;9.25;;;;;;;;;;5057607;28;20045;-65
2022/03/05 05:01:56;;;;;;;17.10;8.75;;;;;;;;;;5062703;28;20036;-67
2022/03/05 05:04:42;;;;;;;16.73;9.00;;;;;;;;;;5058180;28;20092;-67
2022/03/05 05:07:27;;;;;;;16.63;8.80;;;;;;;;;;5056478;28;20383;-70
2022/03/05 05:10:12;;;;;;;16.48;9.50;;;;;;;;;;5065509;28;20068;-68
2022/03/05 05:12:57;;;;;;;16.92;8.45;;;;;;;;;;5024354;28;20052;-66
2022/03/05 05:15:43;;;;;;;17.45;9.15;;;;;;;;;;5059087;28;20103;-67
2022/03/05 05:18:28;;;;;;;16.05;8.93;;;;;;;;;;5057376;28;20028;-70
2022/03/05 05:21:13;;;;;;;23.02;9.82;;;;;;;;;;5059108;28;20036;-62
2022/03/05 05:23:58;;;;;;;18.80;9.32;;;;;;;;;;5043705;28;20020;-63
2022/03/05 05:26:44;;;;;;;15.27;9.07;;;;;;;;;;5051432;28;20028;-63
2022/03/05 05:29:29;;;;;;;20.02;9.93;;;;;;;;;;5057697;28;20036;-63
2022/03/05 05:32:14;;;;;;;17.27;8.30;;;;;;;;;;5052670;28;20423;-63
2022/03/05 05:35:00;;;;;;;16.60;8.70;;;;;;;;;;5055833;28;20205;-69
2022/03/05 05:37:45;;;;;;;18.02;9.75;;;;;;;;;;5065164;28;20419;-62
2022/03/05 05:40:30;;;;;;;17.42;9.38;;;;;;;;;;5071925;28;20036;-63
2022/03/05 05:43:16;;;;;;;17.80;9.32;;;;;;;;;;5062924;28;20417;-64
2022/03/05 05:46:01;;;;;;;16.67;8.65;;;;;;;;;;5053116;28;20257;-65
2022/03/05 05:48:46;;;;;;;17.98;9.43;;;;;;;;;;5047633;28;20028;-65
2022/03/05 05:51:32;;;;;;;15.20;8.50;;;;;;;;;;5062283;28;20020;-64
2022/03/05 05:54:18;;;;;;;18.77;8.98;;;;;;;;;;5053939;28;20394;-64
2022/03/05 05:57:03;;;;;;;16.33;8.00;;;;;;;;;;5040057;28;20024;-68
2022/03/05 05:59:49;;;;;;;15.63;8.65;;;;;;;;;;5058387;28;20036;-72
2022/03/05 06:02:34;;;;;;;19.25;9.75;;;;;;;;;;5070926;28;20020;-69
2022/03/05 06:05:19;;;;;;;18.85;9.93;;;;;;;;;;5054118;28;20371;-68
2022/03/05 06:08:04;;;;;;;18.52;9.35;;;;;;;;;;5043778;28;20039;-68
2022/03/05 06:10:51;;;;;;;18.50;10.18;;;;;;;;;;5055999;28;20379;-68
2022/03/05 06:13:36;;;;;;;18.65;9.15;;;;;;;;;;5069525;28;20036;-71
2022/03/05 06:16:22;;;;;;;18.75;10.73;;;;;;;;;;5057052;28;20271;-65
2022/03/05 06:19:08;;;;;;;20.58;9.93;;;;;;;;;;5052116;28;20024;-68
2022/03/05 06:21:53;;;;;;;18.52;9.40;;;;;;;;;;5056871;28;20103;-67
2022/03/05 06:24:39;;;;;;;19.13;10.05;;;;;;;;;;5048204;28;20472;-67
2022/03/05 06:27:24;;;;;;;25.48;10.50;;;;;;;;;;5062238;28;20554;-68
2022/03/05 06:30:10;;;;;;;16.15;9.13;;;;;;;;;;5061575;28;20051;-69
2022/03/05 06:32:56;;;;;;;16.55;9.70;;;;;;;;;;5081610;28;20036;-71
2022/03/05 06:35:41;;;;;;;17.58;10.25;;;;;;;;;;5059040;28;20027;-60
2022/03/05 06:38:26;;;;;;;22.65;10.65;;;;;;;;;;5051427;28;20028;-62
2022/03/05 06:41:12;;;;;;;22.65;10.18;;;;;;;;;;5054084;28;20398;-60
2022/03/05 06:43:57;;;;;;;18.73;9.88;;;;;;;;;;5066763;28;20043;-62
2022/03/05 06:46:42;;;;;;;20.88;10.68;;;;;;;;;;5057094;28;20024;-61
2022/03/05 06:49:27;;;;;;;16.55;9.63;;;;;;;;;;5075611;28;20028;-68
2022/03/05 06:52:13;;;;;;;17.65;10.35;;;;;;;;;;5066760;28;20047;-67
2022/03/05 06:54:58;;;;;;;16.77;9.63;;;;;;;;;;5071188;28;20266;-67
2022/03/05 06:57:44;;;;;;;17.67;10.77;;;;;;;;;;5063840;28;20472;-67
2022/03/05 07:00:29;;;;;;;18.95;10.93;;;;;;;;;;5056878;28;20028;-68
2022/03/05 07:03:14;;;;;;;19.15;10.88;;;;;;;;;;5070334;28;20028;-68
2022/03/05 07:06:00;;;;;;;18.95;11.30;;;;;;;;;;5064263;28;20367;-66
2022/03/05 07:08:45;;;;;;;17.98;10.90;;;;;;;;;;5056776;28;20089;-68
2022/03/05 07:11:31;;;;;;;20.70;11.68;;;;;;;;;;5066243;28;20039;-71
2022/03/05 07:14:16;;;;;;;20.55;10.30;;;;;;;;;;5064556;28;20040;-71
2022/03/05 07:17:02;;;;;;;19.42;10.73;;;;;;;;;;5067981;28;20020;-69
2022/03/05 07:19:47;;;;;;;20.75;10.55;;;;;;;;;;5055650;28;20106;-70
2022/03/05 07:22:33;;;;;;;21.35;11.57;;;;;;;;;;5064858;28;20035;-70
2022/03/05 07:25:18;;;;;;;19.50;10.43;;;;;;;;;;5052615;28;20352;-60
2022/03/05 07:28:03;;;;;;;21.92;11.35;;;;;;;;;;5058355;28;20028;-67
2022/03/05 07:30:48;;;;;;;19.20;9.82;;;;;;;;;;5061823;28;20036;-64
2022/03/05 07:33:34;;;;;;;18.17;10.35;;;;;;;;;;5056312;28;20399;-65
2022/03/05 07:36:19;;;;;;;20.42;10.65;;;;;;;;;;5079643;28;20228;-64
2022/03/05 07:39:07;;;;;;;21.50;11.40;;;;;;;;;;5052137;28;20036;-64
2022/03/05 07:41:52;;;;;;;16.92;9.68;;;;;;;;;;5054245;28;20115;-64
2022/03/05 07:44:37;;;;;;;20.33;10.95;;;;;;;;;;5056696;28;20032;-72
2022/03/05 07:47:23;;;;;;;23.40;13.63;;;;;;;;;;5061773;28;20041;-61
2022/03/05 07:50:08;;;;;;;25.35;14.52;;;;;;;;;;5032363;28;20024;-60
2022/03/05 07:52:53;;;;;;;20.15;12.60;;;;;;;;;;5058784;28;20112;-63
2022/03/05 07:55:39;;;;;;;21.02;12.02;;;;;;;;;;5054886;28;20108;-63
2022/03/05 07:58:24;;;;;;;21.58;11.30;;;;;;;;;;5043982;28;20028;-64
2022/03/05 08:01:09;;;;;;;19.30;12.07;;;;;;;;;;5060998;28;20568;-62
2022/03/05 08:03:54;;;;;;;19.98;11.90;;;;;;;;;;5060221;28;20032;-62
2022/03/05 08:06:40;;;;;;;24.75;13.30;;;;;;;;;;5066654;28;20397;-72
2022/03/05 08:09:25;;;;;;;21.27;11.65;;;;;;;;;;5062730;28;20029;-72
2022/03/05 08:12:10;;;;;;;24.42;13.80;;;;;;;;;;5058674;28;20036;-71
2022/03/05 08:14:56;;;;;;;25.75;14.07;;;;;;;;;;5035552;28;20020;-73
2022/03/05 08:18:01;;;;;;;24.73;13.32;;;;;;;;;;5054152;28;20476;-73
2022/03/05 08:20:47;;;;;;;22.92;13.88;;;;;;;;;;5053440;28;20032;-72
2022/03/05 08:23:32;;;;;;;26.23;14.60;;;;;;;;;;5050031;28;20183;-60
2022/03/05 08:26:18;;;;;;;24.48;14.00;;;;;;;;;;5042861;28;20067;-70
2022/03/05 08:29:03;;;;;;;24.15;13.82;;;;;;;;;;5068822;28;20515;-72
2022/03/05 08:31:49;;;;;;;29.17;14.13;;;;;;;;;;5053524;28;20036;-70
2022/03/05 08:34:34;;;;;;;24.23;14.57;;;;;;;;;;5054262;28;20032;-70
2022/03/05 08:37:19;;;;;;;27.85;14.57;;;;;;;;;;5053314;28;20044;-70
2022/03/05 08:40:06;;;;;;;23.33;14.65;;;;;;;;;;5053670;28;20124;-68
2022/03/05 08:42:52;;;;;;;23.08;14.50;;;;;;;;;;5059350;28;20397;-74
2022/03/05 08:45:37;;;;;;;21.90;14.80;;;;;;;;;;5054090;28;20579;-73
2022/03/05 08:48:23;;;;;;;24.80;15.48;;;;;;;;;;5079360;28;20056;-72
2022/03/05 08:51:08;;;;;;;25.33;14.45;;;;;;;;;;5052527;28;20060;-74
2022/03/05 08:53:53;;;;;;;22.95;14.15;;;;;;;;;;5053059;28;20387;-75
2022/03/05 08:56:38;;;;;;;22.08;13.90;;;;;;;;;;5051947;28;20031;-74
2022/03/05 08:59:24;;;;;;;23.05;14.82;;;;;;;;;;5069812;28;20038;-61
2022/03/05 09:02:09;;;;;;;22.83;14.60;;;;;;;;;;5044790;28;20421;-68
2022/03/05 09:04:54;;;;;;;24.63;16.15;;;;;;;;;;5039380;28;20028;-68
2022/03/05 09:07:40;;;;;;;23.67;13.60;;;;;;;;;;5080674;28;20034;-68
2022/03/05 09:10:26;;;;;;;20.98;14.18;;;;;;;;;;5079246;28;20028;-67
2022/03/05 09:13:11;;;;;;;24.80;14.70;;;;;;;;;;5059999;28;20040;-66
2022/03/05 09:15:56;;;;;;;21.98;14.07;;;;;;;;;;5057252;28;20025;-74
2022/03/05 09:18:42;;;;;;;19.58;12.95;;;;;;;;;;5053293;28;20131;-67
2022/03/05 09:21:27;;;;;;;19.67;14.15;;;;;;;;;;5058629;28;20024;-64
2022/03/05 09:24:12;;;;;;;19.38;13.52;;;;;;;;;;5073393;28;20062;-65
2022/03/05 09:26:57;;;;;;;20.70;13.48;;;;;;;;;;5039346;28;20032;-63
2022/03/05 09:29:43;;;;;;;19.50;13.23;;;;;;;;;;5054722;28;20116;-64
2022/03/05 09:32:28;;;;;;;18.75;13.07;;;;;;;;;;5052518;28;20040;-64
2022/03/05 09:35:13;;;;;;;19.55;13.05;;;;;;;;;;5052347;28;20530;-64
2022/03/05 09:37:58;;;;;;;17.40;10.68;;;;;;;;;;5055604;28;20024;-68
2022/03/05 09:40:44;;;;;;;19.40;12.00;;;;;;;;;;5052027;28;20036;-66
2022/03/05 09:43:29;;;;;;;20.40;12.30;;;;;;;;;;5061420;28;20348;-68
2022/03/05 09:46:18;;;;;;;18.15;11.35;;;;;;;;;;5048896;28;20022;-69
2022/03/05 09:49:03;;;;;;;20.30;11.73;;;;;;;;;;5068377;28;20036;-66
2022/03/05 09:51:49;;;;;;;19.58;11.77;;;;;;;;;;5059981;28;20040;-69
2022/03/05 09:54:35;;;;;;;21.38;12.30;;;;;;;;;;5045365;28;20032;-66
2022/03/05 09:57:20;;;;;;;18.05;11.35;;;;;;;;;;5056977;28;20060;-70
2022/03/05 10:00:06;;;;;;;15.15;10.05;;;;;;;;;;5039299;28;20058;-69
2022/03/05 10:02:51;;;;;;;15.27;10.10;;;;;;;;;;5051395;28;20033;-71
2022/03/05 10:05:37;;;;;;;19.65;10.98;;;;;;;;;;5040949;28;20103;-69
2022/03/05 10:08:23;;;;;;;16.45;10.55;;;;;;;;;;5050907;28;20056;-69
2022/03/05 10:11:11;;;;;;;21.55;11.15;;;;;;;;;;5053669;28;20109;-61
2022/03/05 10:13:58;;;;;;;16.75;10.80;;;;;;;;;;5046814;28;20070;-61
2022/03/05 10:16:46;;;;;;;13.98;10.82;;;;;;;;;;5073940;28;20024;-61
2022/03/05 10:19:31;;;;;;;15.45;10.68;;;;;;;;;;5044312;28;20418;-62
2022/03/05 10:22:16;;;;;;;12.98;9.68;;;;;;;;;;5052976;28;20119;-62
2022/03/05 10:25:02;;;;;;;14.70;10.30;;;;;;;;;;5048480;28;20537;-62
2022/03/05 10:27:47;;;;;;;12.98;8.82;;;;;;;;;;5035545;28;20215;-61
2022/03/05 10:30:34;;;;;;;13.68;9.32;;;;;;;;;;5063415;28;20109;-69
2022/03/05 10:33:33;;;;;;;13.27;8.80;;;;;;;;;;5070782;28;20633;-66
2022/03/05 10:36:22;;;;;;;12.02;8.65;;;;;;;;;;5043874;28;20189;-65
2022/03/05 10:39:09;;;;;;;13.23;9.23;;;;;;;;;;5049195;28;20041;-65
2022/03/05 10:41:55;;;;;;;12.55;9.30;;;;;;;;;;5057292;28;20064;-64
2022/03/05 10:44:40;;;;;;;12.15;8.75;;;;;;;;;;5050300;28;20027;-67
2022/03/05 10:47:26;;;;;;;11.98;8.20;;;;;;;;;;5061936;28;20035;-66
2022/03/05 10:50:21;;;;;;;14.48;9.77;;;;;;;;;;5072439;28;20052;-70
2022/03/05 10:53:07;;;;;;;14.98;9.80;;;;;;;;;;5055373;28;20032;-66
2022/03/05 10:55:52;;;;;;;13.95;9.73;;;;;;;;;;5046401;28;20063;-66
2022/03/05 10:58:38;;;;;;;13.27;10.30;;;;;;;;;;5054424;28;20032;-66
2022/03/05 11:01:23;;;;;;;13.18;9.10;;;;;;;;;;5058794;28;20157;-64
2022/03/05 11:04:10;;;;;;;13.88;10.18;;;;;;;;;;5065597;28;20442;-65
2022/03/05 11:06:57;;;;;;;17.33;11.48;;;;;;;;;;5049978;28;20122;-67
2022/03/05 11:09:42;;;;;;;14.55;11.18;;;;;;;;;;5073610;28;20036;-61
2022/03/05 11:12:29;;;;;;;14.10;10.30;;;;;;;;;;5071583;28;20123;-62
2022/03/05 11:15:14;;;;;;;15.15;10.77;;;;;;;;;;5059940;28;20037;-60
2022/03/05 11:18:00;;;;;;;15.00;10.57;;;;;;;;;;5043683;28;20035;-60
2022/03/05 11:20:47;;;;;;;15.77;10.98;;;;;;;;;;5061572;28;20055;-61
2022/03/05 11:23:34;;;;;;;14.55;10.48;;;;;;;;;;5050594;28;20040;-62
2022/03/05 11:26:19;;;;;;;18.40;9.73;;;;;;;;;;5034746;28;20032;-72
2022/03/05 11:29:04;;;;;;;14.88;10.18;;;;;;;;;;5063012;28;20044;-69
2022/03/05 11:31:50;;;;;;;16.35;10.50;;;;;;;;;;5057793;28;20037;-67
2022/03/05 11:34:42;;;;;;;14.75;9.80;;;;;;;;;;5057912;28;20446;-68
2022/03/05 11:37:32;;;;;;;16.60;11.60;;;;;;;;;;5057127;28;20103;-67
2022/03/05 11:40:50;;;;;;;16.23;10.68;;;;;;;;;;5052787;28;20033;-67
2022/03/05 11:43:44;;;;;;;15.27;9.98;;;;;;;;;;5040337;28;20387;-67
2022/03/05 11:46:29;;;;;;;16.17;9.98;;;;;;;;;;5071214;28;20089;-68
2022/03/05 11:49:15;;;;;;;16.60;9.20;;;;;;;;;;5033312;28;20041;-67
2022/03/05 11:52:01;;;;;;;14.45;9.55;;;;;;;;;;5046087;28;20033;-68
2022/03/05 11:55:05;;;;;;;15.57;9.05;;;;;;;;;;5039317;28;20029;-66
2022/03/05 11:57:50;;;;;;;13.45;8.80;;;;;;;;;;5053389;28;20036;-67
2022/03/05 12:00:36;;;;;;;13.32;8.25;;;;;;;;;;5071129;28;20056;-67
2022/03/05 12:03:22;;;;;;;13.40;8.82;;;;;;;;;;5061511;28;20055;-63
2022/03/05 12:06:09;;;;;;;13.05;8.77;;;;;;;;;;5058924;28;20033;-64
2022/03/05 12:08:54;;;;;;;16.30;10.38;;;;;;;;;;5042555;28;20032;-65
2022/03/05 12:11:53;;;;;;;15.13;9.13;;;;;;;;;;5074231;28;20490;-65
2022/03/05 12:14:57;;;;;;;15.13;9.15;;;;;;;;;;5064669;28;20287;-65
2022/03/05 12:17:47;;;;;;;13.13;8.38;;;;;;;;;;5058932;28;20024;-67
2022/03/05 12:20:34;;;;;;;;;;;;;;;;;;5055264;28;20028;-66
2022/03/05 12:23:20;;;;;;;11.70;8.13;;;;;;;;;;5056470;28;19908;-62
2022/03/05 12:26:05;;;;;;;12.60;8.57;;;;;;;;;;5061492;28;20032;-64
2022/03/05 12:28:51;;;;;;;12.27;8.30;;;;;;;;;;5053599;28;20033;-64
2022/03/05 12:31:43;;;;;;;12.20;8.45;;;;;;;;;;5053606;28;20047;-60
2022/03/05 12:34:34;;;;;;;12.60;8.38;;;;;;;;;;5052883;28;20178;-63
2022/03/05 12:37:19;;;;;;;14.75;9.02;;;;;;;;;;5063900;28;20388;-61
2022/03/05 12:40:05;;;;;;;14.05;9.18;;;;;;;;;;5060692;28;20111;-62
2022/03/05 12:42:51;;;;;;;11.68;7.82;;;;;;;;;;5053543;28;20039;-68
2022/03/05 12:45:38;;;;;;;14.15;8.48;;;;;;;;;;5037401;28;20028;-65
2022/03/05 12:48:24;;;;;;;12.15;8.50;;;;;;;;;;5066754;28;20173;-65
2022/03/05 12:51:09;;;;;;;12.77;8.25;;;;;;;;;;5069885;28;20036;-68
2022/03/05 12:53:58;;;;;;;13.15;8.60;;;;;;;;;;5053144;28;20044;-70
2022/03/05 12:56:44;;;;;;;12.23;8.35;;;;;;;;;;5075488;28;20043;-67
2022/03/05 12:59:29;;;;;;;12.27;7.93;;;;;;;;;;5054603;28;20431;-66
2022/03/05 13:02:16;;;;;;;12.95;8.75;;;;;;;;;;5060689;28;20032;-68
2022/03/05 13:05:20;;;;;;;13.35;8.25;;;;;;;;;;5052742;28;20024;-71
2022/03/05 13:08:05;;;;;;;12.55;8.30;;;;;;;;;;5065104;28;20088;-67
2022/03/05 13:11:05;;;;;;;11.85;7.97;;;;;;;;;;5062094;28;20111;-67
2022/03/05 13:13:58;;;;;;;14.30;8.95;;;;;;;;;;5072804;28;20036;-66
2022/03/05 13:16:48;;;;;;;13.75;8.57;;;;;;;;;;5043343;28;20058;-71
2022/03/05 13:19:33;;;;;;;14.55;8.80;;;;;;;;;;5040429;28;20058;-71
2022/03/05 13:22:25;;;;;;;14.02;8.15;;;;;;;;;;5052766;28;20079;-70
2022/03/05 13:25:11;;;;;;;13.18;8.18;;;;;;;;;;5051212;28;20028;-71
2022/03/05 13:27:57;;;;;;;14.30;8.38;;;;;;;;;;5064988;28;20021;-72
2022/03/05 13:30:43;;;;;;;11.55;7.65;;;;;;;;;;5053286;28;20577;-70
2022/03/05 13:33:46;;;;;;;13.05;7.50;;;;;;;;;;5047425;28;20180;-69
2022/03/05 13:36:37;;;;;;;13.10;7.90;;;;;;;;;;5058070;28;20023;-67
2022/03/05 13:39:23;;;;;;;13.07;8.25;;;;;;;;;;5062886;28;20036;-70
2022/03/05 13:42:14;;;;;;;12.80;8.20;;;;;;;;;;5054314;28;20094;-72
2022/03/05 13:45:04;;;;;;;13.10;8.07;;;;;;;;;;5052720;28;20059;-72
2022/03/05 13:47:49;;;;;;;12.07;7.18;;;;;;;;;;5037394;28;20059;-70
2022/03/05 13:50:38;;;;;;;13.43;7.65;;;;;;;;;;5048908;28;20483;-70
2022/03/05 13:53:23;;;;;;;11.47;7.23;;;;;;;;;;5051300;28;20124;-66
2022/03/05 13:56:08;;;;;;;13.23;8.55;;;;;;;;;;5070574;28;20051;-70
2022/03/05 13:58:55;;;;;;;13.35;7.93;;;;;;;;;;5053302;28;20035;-68
2022/03/05 14:01:42;;;;;;;12.55;7.95;;;;;;;;;;5064744;28;20038;-68
2022/03/05 14:04:28;;;;;;;14.57;9.10;;;;;;;;;;5050568;28;20028;-68
2022/03/05 14:07:14;;;;;;;13.45;8.57;;;;;;;;;;5066331;28;20275;-67
2022/03/05 14:09:59;;;;;;;12.85;7.85;;;;;;;;;;5050954;28;20094;-63
2022/03/05 14:12:52;;;;;;;15.02;8.65;;;;;;;;;;5051488;28;20389;-60
2022/03/05 14:15:37;;;;;;;14.88;8.60;;;;;;;;;;5046613;28;20036;-63
2022/03/05 14:18:23;;;;;;;16.35;9.35;;;;;;;;;;5037399;28;20329;-63
2022/03/05 14:21:15;;;;;;;12.32;8.23;;;;;;;;;;5052450;28;20032;-62
2022/03/05 14:24:03;;;;;;;15.40;7.80;;;;;;;;;;5045058;28;20164;-63
2022/03/05 14:26:49;;;;;;;14.35;8.85;;;;;;;;;;5049410;28;20029;-65
2022/03/05 14:29:34;;;;;;;13.13;8.15;;;;;;;;;;5057557;28;20047;-67
2022/03/05 14:32:19;;;;;;;13.68;8.70;;;;;;;;;;5058890;28;20342;-63
2022/03/05 14:35:05;;;;;;;12.77;8.40;;;;;;;;;;5053878;28;20066;-62
2022/03/05 14:37:51;;;;;;;13.50;8.13;;;;;;;;;;5059278;28;20044;-61
2022/03/05 14:40:37;;;;;;;13.25;7.80;;;;;;;;;;5042741;28;20028;-61
2022/03/05 14:43:23;;;;;;;12.65;8.02;;;;;;;;;;5055073;28;20475;-62
2022/03/05 14:46:08;;;;;;;12.68;7.97;;;;;;;;;;5066066;28;20119;-61
2022/03/05 14:48:53;;;;;;;13.05;8.90;;;;;;;;;;5061062;28;20043;-74
2022/03/05 14:51:38;;;;;;;12.30;8.02;;;;;;;;;;5058796;28;20529;-74
2022/03/05 14:54:24;;;;;;;13.05;8.10;;;;;;;;;;5054695;28;20034;-72
2022/03/05 14:57:09;;;;;;;10.75;7.07;;;;;;;;;;5056750;28;20033;-72
2022/03/05 14:59:54;;;;;;;13.88;8.00;;;;;;;;;;5063451;28;20028;-75
2022/03/05 15:02:39;;;;;;;11.60;7.25;;;;;;;;;;5069016;28;20827;-73
2022/03/05 15:05:25;;;;;;;13.32;7.10;;;;;;;;;;5070122;28;20375;-73
2022/03/05 15:08:10;;;;;;;11.45;7.07;;;;;;;;;;5061437;28;20055;-62
2022/03/05 15:10:55;;;;;;;12.85;7.45;;;;;;;;;;5048297;28;20471;-70
2022/03/05 15:13:40;;;;;;;13.73;8.07;;;;;;;;;;5058806;28;20035;-68
2022/03/05 15:16:26;;;;;;;11.45;6.80;;;;;;;;;;5056772;28;20178;-68
2022/03/05 15:19:11;;;;;;;11.60;6.70;;;;;;;;;;5068139;28;20031;-71
2022/03/05 15:21:56;;;;;;;12.85;8.38;;;;;;;;;;5054935;28;20483;-69
2022/03/05 15:24:42;;;;;;;10.88;7.35;;;;;;;;;;5055469;28;20356;-64
2022/03/05 15:27:28;;;;;;;14.27;7.28;;;;;;;;;;5064215;28;20037;-69
2022/03/05 15:30:14;;;;;;;11.57;7.45;;;;;;;;;;5056291;28;20463;-67
2022/03/05 15:33:03;;;;;;;11.73;6.90;;;;;;;;;;5028075;28;20041;-68
2022/03/05 15:35:48;;;;;;;11.48;6.57;;;;;;;;;;5051211;28;20029;-68
2022/03/05 15:38:33;;;;;;;12.15;7.55;;;;;;;;;;5056853;28;20036;-69
2022/03/05 15:41:19;;;;;;;12.25;7.18;;;;;;;;;;5053860;28;20075;-69
2022/03/05 15:44:04;;;;;;;11.45;7.45;;;;;;;;;;5055087;28;20039;-68
2022/03/05 15:46:50;;;;;;;12.10;7.15;;;;;;;;;;5062913;28;20170;-69
2022/03/05 15:49:35;;;;;;;12.63;7.60;;;;;;;;;;5056191;28;20032;-69
2022/03/05 15:52:20;;;;;;;12.02;7.53;;;;;;;;;;5041034;28;20051;-70
2022/03/05 15:55:07;;;;;;;10.98;6.80;;;;;;;;;;5040699;28;20036;-69
2022/03/05 15:57:52;;;;;;;13.13;7.57;;;;;;;;;;5054129;28;20028;-69
2022/03/05 16:00:37;;;;;;;13.75;6.85;;;;;;;;;;5074695;28;20036;-65
2022/03/05 16:03:22;;;;;;;12.35;7.30;;;;;;;;;;5054202;28;20462;-61
2022/03/05 16:06:08;;;;;;;12.75;7.50;;;;;;;;;;5059841;28;20047;-63
2022/03/05 16:08:53;;;;;;;11.02;7.35;;;;;;;;;;5040471;28;20089;-62
2022/03/05 16:11:39;;;;;;;12.88;7.30;;;;;;;;;;5065006;28;20507;-64
2022/03/05 16:14:25;;;;;;;12.60;6.88;;;;;;;;;;5051241;28;20033;-64